createdAt,value
2023-01-08T00:02:17.720Z,100228.09
2023-01-08T00:05:22.380Z,100211.34
2023-01-08T00:08:26.744Z,100213.19
2023-01-08T00:11:30.730Z,100211.34
2023-01-08T00:14:35.081Z,100194.59
2023-01-08T00:17:39.594Z,100193.63
2023-01-08T00:20:45.724Z,100192.66
2023-01-08T00:23:55.597Z,100180.34
2023-01-08T00:27:00.172Z,100189.00
2023-01-08T00:30:06.176Z,100174.16
2023-01-08T00:33:14.162Z,100173.16
2023-01-08T00:36:19.704Z,100170.63
2023-01-08T00:39:24.142Z,100174.00
2023-01-08T00:42:28.371Z,100160.00
2023-01-08T00:45:32.994Z,100168.75
2023-01-08T00:48:38.827Z,100160.91
2023-01-08T00:51:43.328Z,100161.59
2023-01-08T00:54:47.821Z,100154.59
2023-01-08T00:57:58.088Z,100149.28
2023-01-08T01:01:15.665Z,100146.75
2023-01-08T01:04:20.690Z,100147.53
2023-01-08T01:07:25.673Z,100142.22
2023-01-08T01:10:30.166Z,100139.63
2023-01-08T01:13:34.281Z,100132.75
2023-01-08T01:16:40.094Z,100124.69
2023-01-08T01:19:45.069Z,100129.69
2023-01-08T01:22:50.084Z,100121.09
2023-01-08T01:25:54.548Z,100122.91
2023-01-08T01:29:00.653Z,100115.94
2023-01-08T01:32:06.215Z,100124.63
2023-01-08T01:35:10.733Z,100108.91
2023-01-08T01:38:15.413Z,100124.63
2023-01-08T01:41:32.195Z,100119.22
2023-01-08T01:44:45.779Z,100117.28
2023-01-08T01:48:14.601Z,100106.75
2023-01-08T01:51:20.675Z,100099.06
2023-01-08T01:54:26.087Z,100089.34
2023-01-08T01:57:32.983Z,100110.13
2023-01-08T02:00:37.543Z,100098.81
2023-01-08T02:03:42.778Z,100107.59
2023-01-08T02:07:12.981Z,100108.47
2023-01-08T02:10:53.710Z,100118.06
2023-01-08T02:14:15.317Z,100109.22
2023-01-08T02:17:34.383Z,100093.69
2023-01-08T02:20:56.402Z,100099.81
2023-01-08T02:24:23.863Z,100098.91
2023-01-08T02:27:31.875Z,100091.22
2023-01-08T02:30:36.624Z,100085.81
2023-01-08T02:33:41.062Z,100079.69
2023-01-08T02:36:54.716Z,100075.38
2023-01-08T02:40:26.277Z,100098.47
2023-01-08T02:43:50.800Z,100086.38
2023-01-08T02:46:56.172Z,100081.38
2023-01-08T02:50:47.685Z,100086.00
2023-01-08T02:53:59.485Z,100089.63
2023-01-08T02:57:22.462Z,100088.94
2023-01-08T03:00:27.685Z,100082.00
2023-01-08T03:03:34.955Z,100083.78
2023-01-08T03:06:40.028Z,100087.41
2023-01-08T03:09:44.347Z,100093.47
2023-01-08T03:13:07.763Z,100085.53
2023-01-08T03:16:43.003Z,100081.94
2023-01-08T03:19:57.959Z,100081.84
2023-01-08T03:23:07.610Z,100084.78
2023-01-08T03:26:18.872Z,100078.63
2023-01-08T03:29:24.735Z,100074.31
2023-01-08T03:32:31.176Z,100069.16
2023-01-08T03:35:39.970Z,100086.47
2023-01-08T03:39:20.202Z,100105.00
2023-01-08T03:42:26.437Z,100105.78
2023-01-08T03:45:33.024Z,100117.84
2023-01-08T03:48:38.801Z,100103.91
2023-01-08T03:51:46.273Z,100110.00
2023-01-08T03:54:51.880Z,100111.84
2023-01-08T03:57:56.569Z,100105.84
2023-01-08T04:01:02.706Z,100101.72
2023-01-08T04:04:07.742Z,100108.63
2023-01-08T04:07:12.796Z,100092.09
2023-01-08T04:10:17.340Z,100093.06
2023-01-08T04:13:21.618Z,100098.31
2023-01-08T04:16:26.135Z,100088.72
2023-01-08T04:19:30.238Z,100091.06
2023-01-08T04:22:34.546Z,100091.34
2023-01-08T04:25:38.769Z,100081.09
2023-01-08T04:28:43.091Z,100080.00
2023-01-08T04:31:47.859Z,100077.25
2023-01-08T04:34:52.111Z,100080.81
2023-01-08T04:37:56.287Z,100073.88
2023-01-08T04:41:02.270Z,100073.72
2023-01-08T04:44:07.042Z,100058.94
2023-01-08T04:47:11.420Z,100061.56
2023-01-08T04:50:15.496Z,100062.56
2023-01-08T04:53:20.709Z,100065.25
2023-01-08T04:56:24.864Z,100064.16
2023-01-08T04:59:29.064Z,100064.94
2023-01-08T05:02:33.648Z,100060.66
2023-01-08T05:05:38.590Z,100056.19
2023-01-08T05:08:42.864Z,100067.38
2023-01-08T05:11:47.253Z,100070.00
2023-01-08T05:14:51.232Z,100062.88
2023-01-08T05:18:14.579Z,100048.78
2023-01-08T05:21:19.056Z,100045.19
2023-01-08T05:24:22.993Z,100053.19
2023-01-08T05:27:29.152Z,100058.94
2023-01-08T05:30:33.707Z,100045.78
2023-01-08T05:33:38.786Z,100047.38
2023-01-08T05:36:43.361Z,100064.59
2023-01-08T05:39:49.259Z,100054.16
2023-01-08T05:42:53.580Z,100062.00
2023-01-08T05:46:03.338Z,100062.59
2023-01-08T05:49:08.444Z,100064.38
2023-01-08T05:52:12.687Z,100055.78
2023-01-08T05:55:17.155Z,100049.69
2023-01-08T05:58:21.234Z,100054.75
2023-01-08T06:01:25.850Z,100054.75
2023-01-08T06:04:30.208Z,100049.38
2023-01-08T06:07:34.990Z,100046.16
2023-01-08T06:10:40.633Z,100035.53
2023-01-08T06:13:45.036Z,100039.06
2023-01-08T06:16:49.455Z,100038.91
2023-01-08T06:19:53.898Z,100046.00
2023-01-08T06:22:58.309Z,100053.06
2023-01-08T06:26:04.305Z,100052.06
2023-01-08T06:29:09.347Z,100051.38
2023-01-08T06:32:13.314Z,100047.06
2023-01-08T06:35:17.738Z,100053.25
2023-01-08T06:38:22.997Z,100045.38
2023-01-08T06:41:27.616Z,100043.69
2023-01-08T06:44:31.963Z,100047.22
2023-01-08T06:47:36.301Z,100035.00
2023-01-08T06:50:40.519Z,100037.53
2023-01-08T06:53:47.394Z,100025.22
2023-01-08T06:56:54.306Z,100030.28
2023-01-08T06:59:59.349Z,100033.97
2023-01-08T07:03:04.224Z,100034.94
2023-01-08T07:06:16.855Z,100033.06
2023-01-08T07:09:21.572Z,100039.91
2023-01-08T07:12:26.024Z,100039.81
2023-01-08T07:15:30.201Z,100030.28
2023-01-08T07:18:36.103Z,100037.28
2023-01-08T07:21:40.429Z,100026.94
2023-01-08T07:24:44.899Z,100022.59
2023-01-08T07:27:49.988Z,100016.63
2023-01-08T07:30:54.504Z,100024.53
2023-01-08T07:33:58.686Z,100028.91
2023-01-08T07:37:03.971Z,100041.06
2023-01-08T07:40:10.561Z,100033.38
2023-01-08T07:43:15.874Z,100034.28
2023-01-08T07:46:20.562Z,100029.06
2023-01-08T07:49:24.887Z,100025.63
2023-01-08T07:52:29.713Z,100022.16
2023-01-08T07:55:34.125Z,100023.69
2023-01-08T07:58:38.943Z,100008.84
2023-01-08T08:01:43.643Z,100007.00
2023-01-08T08:04:52.963Z,100003.47
2023-01-08T08:07:57.580Z,100004.97
2023-01-08T08:11:02.718Z,100000.66
2023-01-08T08:14:07.380Z,100007.66
2023-01-08T08:17:11.688Z,100016.63
2023-01-08T08:20:16.848Z,100018.28
2023-01-08T08:23:21.362Z,100020.16
2023-01-08T08:26:25.835Z,100023.84
2023-01-08T08:29:30.127Z,100038.69
2023-01-08T08:32:34.491Z,100033.47
2023-01-08T08:35:40.318Z,100054.47
2023-01-08T08:38:44.620Z,100049.22
2023-01-08T08:41:49.192Z,100053.69
2023-01-08T08:44:53.620Z,100055.47
2023-01-08T08:47:58.449Z,100071.25
2023-01-08T08:51:03.827Z,100065.88
2023-01-08T08:54:08.101Z,100071.09
2023-01-08T08:57:12.862Z,100074.47
2023-01-08T09:00:17.474Z,100071.63
2023-01-08T09:03:21.933Z,100075.38
2023-01-08T09:06:27.743Z,100082.31
2023-01-08T09:09:31.817Z,100080.59
2023-01-08T09:12:35.794Z,100083.16
2023-01-08T09:15:40.317Z,100085.75
2023-01-08T09:18:45.053Z,100081.06
2023-01-08T09:21:55.797Z,100092.38
2023-01-08T09:25:00.837Z,100093.16
2023-01-08T09:28:12.823Z,100088.00
2023-01-08T09:31:17.238Z,100088.16
2023-01-08T09:34:23.894Z,100093.06
2023-01-08T09:37:28.400Z,100099.22
2023-01-08T09:40:43.880Z,100104.53
2023-01-08T09:43:53.090Z,100106.06
2023-01-08T09:46:58.670Z,100105.91
2023-01-08T09:50:11.437Z,100106.97
2023-01-08T09:53:18.399Z,100106.44
2023-01-08T09:56:22.698Z,100106.44
2023-01-08T09:59:27.306Z,100107.34
2023-01-08T10:02:39.965Z,100107.34
2023-01-08T10:05:44.646Z,100109.81
2023-01-08T10:08:51.855Z,100107.97
2023-01-08T10:12:02.147Z,100105.25
2023-01-08T10:15:13.695Z,100099.03
2023-01-08T10:18:23.379Z,100098.88
2023-01-08T10:21:40.509Z,100087.72
2023-01-08T10:24:44.883Z,100084.19
2023-01-08T10:27:53.835Z,100081.47
2023-01-08T10:31:06.973Z,100077.94
2023-01-08T10:34:39.271Z,100069.06
2023-01-08T10:37:43.905Z,100063.75
2023-01-08T10:40:49.890Z,100062.75
2023-01-08T10:43:59.246Z,100051.78
2023-01-08T10:47:05.941Z,100041.31
2023-01-08T10:50:30.823Z,100048.06
2023-01-08T10:53:35.148Z,100044.38
2023-01-08T10:56:44.815Z,100041.00
2023-01-08T10:59:49.136Z,100030.38
2023-01-08T11:02:53.580Z,100039.34
2023-01-08T11:05:58.385Z,100045.94
2023-01-08T11:09:17.883Z,100048.41
2023-01-08T11:12:35.657Z,100054.44
2023-01-08T11:15:41.884Z,100038.16
2023-01-08T11:18:50.236Z,100016.75
2023-01-08T11:22:23.199Z,99997.97
2023-01-08T11:25:30.337Z,99995.34
2023-01-08T11:28:56.089Z,99983.00
2023-01-08T11:32:15.212Z,99967.63
2023-01-08T11:35:28.372Z,99953.78
2023-01-08T11:38:32.901Z,99935.72
2023-01-08T11:41:55.537Z,99930.00
2023-01-08T11:45:09.520Z,99914.38
2023-01-08T11:48:58.613Z,99915.03
2023-01-08T11:52:33.849Z,99908.66
2023-01-08T11:56:05.279Z,99906.75
2023-01-08T11:59:37.621Z,99901.72
2023-01-08T12:02:55.793Z,99900.41
2023-01-08T12:06:33.138Z,99888.81
2023-01-08T12:09:50.276Z,99886.53
2023-01-08T12:13:58.212Z,99878.28
2023-01-08T12:17:45.580Z,99868.31
2023-01-08T12:21:06.559Z,99865.41
2023-01-08T12:24:40.590Z,99848.06
2023-01-08T12:28:22.377Z,99853.34
2023-01-08T12:32:06.769Z,99841.75
2023-01-08T12:35:25.526Z,99839.81
2023-01-08T12:38:43.331Z,99837.47
2023-01-08T12:41:49.450Z,99829.22
2023-01-08T12:44:55.134Z,99823.44
2023-01-08T12:48:09.278Z,99821.38
2023-01-08T12:51:39.119Z,99826.34
2023-01-08T12:54:48.849Z,99822.88
2023-01-08T12:58:20.097Z,99815.41
2023-01-08T13:02:04.521Z,99819.53
2023-01-08T13:05:19.264Z,99824.69
2023-01-08T13:08:38.999Z,99809.03
2023-01-08T13:11:54.012Z,99807.91
2023-01-08T13:14:58.389Z,99798.28
2023-01-08T13:18:17.524Z,99805.09
2023-01-08T13:21:59.740Z,99798.66
2023-01-08T13:25:15.813Z,99793.59
2023-01-08T13:28:45.004Z,99786.13
2023-01-08T13:31:49.905Z,99783.03
2023-01-08T13:35:15.830Z,99779.66
2023-01-08T13:38:22.260Z,99773.78
2023-01-08T13:41:33.615Z,99764.31
2023-01-08T13:44:49.795Z,99760.41
2023-01-08T13:47:56.180Z,99754.41
2023-01-08T13:51:00.587Z,99753.47
2023-01-08T13:54:21.622Z,99753.66
2023-01-08T13:57:31.350Z,99749.75
2023-01-08T14:00:41.803Z,99743.25
2023-01-08T14:03:48.556Z,99742.44
2023-01-08T14:06:53.024Z,99732.88
2023-01-08T14:10:13.125Z,99739.16
2023-01-08T14:13:20.612Z,99745.31
2023-01-08T14:16:25.461Z,99736.81
2023-01-08T14:19:29.831Z,99734.19
2023-01-08T14:22:35.916Z,99723.16
2023-01-08T14:25:43.486Z,99725.19
2023-01-08T14:28:54.708Z,99729.78
2023-01-08T14:32:01.073Z,99731.91
2023-01-08T14:35:10.121Z,99725.00
2023-01-08T14:38:17.203Z,99726.28
2023-01-08T14:41:55.082Z,99721.41
2023-01-08T14:45:34.725Z,99715.66
2023-01-08T14:48:44.553Z,99707.91
2023-01-08T14:51:48.971Z,99700.16
2023-01-08T14:54:59.778Z,99703.03
2023-01-08T14:58:20.233Z,99701.72
2023-01-08T15:01:31.262Z,99697.50
2023-01-08T15:04:35.698Z,99697.59
2023-01-08T15:07:45.082Z,99703.03
2023-01-08T15:11:18.609Z,99692.91
2023-01-08T15:14:24.971Z,99700.94
2023-01-08T15:17:29.570Z,99695.22
2023-01-08T15:20:34.672Z,99694.47
2023-01-08T15:23:42.905Z,99700.78
2023-01-08T15:26:47.686Z,99700.03
2023-01-08T15:30:00.303Z,99698.59
2023-01-08T15:33:28.887Z,99698.84
2023-01-08T15:36:33.591Z,99697.09
2023-01-08T15:39:37.842Z,99692.97
2023-01-08T15:43:00.515Z,99686.25
2023-01-08T15:46:11.249Z,99688.94
2023-01-08T15:49:15.524Z,99681.94
2023-01-08T15:52:23.822Z,99676.88
2023-01-08T15:55:28.323Z,99677.03
2023-01-08T15:58:32.588Z,99670.16
2023-01-08T16:01:37.208Z,99675.38
2023-01-08T16:04:42.918Z,99676.31
2023-01-08T16:07:48.104Z,99673.84
2023-01-08T16:10:53.286Z,99673.78
2023-01-08T16:13:57.895Z,99673.84
2023-01-08T16:17:02.521Z,99666.75
2023-01-08T16:20:09.192Z,99674.44
2023-01-08T16:23:13.459Z,99669.94
2023-01-08T16:26:18.057Z,99673.50
2023-01-08T16:29:22.331Z,99674.34
2023-01-08T16:32:26.498Z,99675.19
2023-01-08T16:35:30.794Z,99678.50
2023-01-08T16:38:36.718Z,99679.31
2023-01-08T16:41:41.039Z,99668.78
2023-01-08T16:44:45.186Z,99666.91
2023-01-08T16:47:49.453Z,99670.28
2023-01-08T16:50:53.877Z,99671.13
2023-01-08T16:53:58.465Z,99666.56
2023-01-08T16:57:02.834Z,99665.56
2023-01-08T17:00:08.984Z,99662.66
2023-01-08T17:03:13.408Z,99667.44
2023-01-08T17:06:17.377Z,99665.69
2023-01-08T17:09:21.952Z,99658.44
2023-01-08T17:12:26.744Z,99655.56
2023-01-08T17:15:31.032Z,99658.03
2023-01-08T17:18:35.652Z,99657.97
2023-01-08T17:21:40.867Z,99652.81
2023-01-08T17:24:46.998Z,99654.84
2023-01-08T17:27:52.744Z,99664.66
2023-01-08T17:31:03.192Z,99658.59
2023-01-08T17:34:12.430Z,99664.84
2023-01-08T17:37:16.636Z,99674.63
2023-01-08T17:40:21.091Z,99666.03
2023-01-08T17:43:25.518Z,99673.72
2023-01-08T17:46:29.590Z,99679.38
2023-01-08T17:49:33.851Z,99676.19
2023-01-08T17:52:38.274Z,99676.59
2023-01-08T17:55:42.840Z,99678.47
2023-01-08T17:58:50.353Z,99678.97
2023-01-08T18:01:55.023Z,99688.78
2023-01-08T18:04:59.856Z,99691.47
2023-01-08T18:08:04.584Z,99694.00
2023-01-08T18:11:10.662Z,99689.03
2023-01-08T18:14:15.111Z,99689.78
2023-01-08T18:17:19.346Z,99697.78
2023-01-08T18:20:23.572Z,99703.69
2023-01-08T18:23:27.555Z,99689.94
2023-01-08T18:26:31.960Z,99694.44
2023-01-08T18:29:36.183Z,99685.13
2023-01-08T18:32:40.701Z,99682.59
2023-01-08T18:35:45.160Z,99679.34
2023-01-08T18:38:49.841Z,99679.25
2023-01-08T18:42:12.596Z,99675.31
2023-01-08T18:45:16.929Z,99677.91
2023-01-08T18:48:21.041Z,99678.09
2023-01-08T18:51:25.454Z,99672.28
2023-01-08T18:54:29.888Z,99674.72
2023-01-08T18:57:34.753Z,99677.44
2023-01-08T19:00:39.061Z,99681.69
2023-01-08T19:03:46.215Z,99680.13
2023-01-08T19:06:50.795Z,99674.03
2023-01-08T19:09:56.208Z,99662.91
2023-01-08T19:13:00.700Z,99660.56
2023-01-08T19:16:13.897Z,99661.00
2023-01-08T19:19:19.624Z,99663.06
2023-01-08T19:22:26.956Z,99652.03
2023-01-08T19:25:31.630Z,99646.47
2023-01-08T19:28:36.337Z,99643.28
2023-01-08T19:31:40.640Z,99633.75
2023-01-08T19:34:45.196Z,99631.50
2023-01-08T19:37:49.624Z,99628.88
2023-01-08T19:41:00.163Z,99638.72
2023-01-08T19:44:08.565Z,99624.00
2023-01-08T19:47:13.065Z,99618.09
2023-01-08T19:50:17.645Z,99620.00
2023-01-08T19:53:25.816Z,99615.06
2023-01-08T19:56:31.106Z,99605.63
2023-01-08T19:59:35.980Z,99613.59
2023-01-08T20:02:40.507Z,99603.09
2023-01-08T20:05:44.995Z,99594.75
2023-01-08T20:08:54.091Z,99586.94
2023-01-08T20:11:58.626Z,99588.94
2023-01-08T20:15:05.361Z,99589.94
2023-01-08T20:18:09.966Z,99594.31
2023-01-08T20:21:21.061Z,99599.63
2023-01-08T20:24:25.904Z,99597.84
2023-01-08T20:27:30.358Z,99605.06
2023-01-08T20:30:34.881Z,99595.63
2023-01-08T20:33:40.050Z,99588.06
2023-01-08T20:36:46.881Z,99589.00
2023-01-08T20:39:51.656Z,99588.16
2023-01-08T20:42:55.892Z,99580.34
2023-01-08T20:46:00.592Z,99581.25
2023-01-08T20:49:11.921Z,99574.59
2023-01-08T20:52:18.304Z,99566.06
2023-01-08T20:55:23.148Z,99561.97
2023-01-08T20:58:27.644Z,99559.66
2023-01-08T21:01:33.850Z,99551.91
2023-01-08T21:04:42.973Z,99548.72
2023-01-08T21:07:47.369Z,99560.22
2023-01-08T21:11:03.806Z,99553.34
2023-01-08T21:14:10.510Z,99548.94
2023-01-08T21:17:14.963Z,99550.88
2023-01-08T21:20:19.569Z,99547.59
2023-01-08T21:23:23.836Z,99541.53
2023-01-08T21:26:28.554Z,99522.69
2023-01-08T21:29:33.016Z,99523.63
2023-01-08T21:32:37.313Z,99515.81
2023-01-08T21:35:41.631Z,99514.06
2023-01-08T21:38:46.849Z,99512.28
2023-01-08T21:42:09.563Z,99511.53
2023-01-08T21:45:26.321Z,99515.06
2023-01-08T21:48:30.609Z,99503.97
2023-01-08T21:51:53.235Z,99502.25
2023-01-08T21:55:00.204Z,99501.59
2023-01-08T21:58:07.036Z,99499.06
2023-01-08T22:01:11.445Z,99487.72
2023-01-08T22:04:16.247Z,99480.66
2023-01-08T22:07:20.565Z,99479.91
2023-01-08T22:10:24.829Z,99476.38
2023-01-08T22:13:29.151Z,99472.00
2023-01-08T22:16:33.807Z,99471.09
2023-01-08T22:19:39.233Z,99474.69
2023-01-08T22:22:47.013Z,99471.84
2023-01-08T22:25:51.495Z,99465.69
2023-01-08T22:28:56.035Z,99463.69
2023-01-08T22:32:00.334Z,99448.03
2023-01-08T22:35:07.454Z,99439.41
2023-01-08T22:38:12.373Z,99442.25
2023-01-08T22:41:23.266Z,99443.28
2023-01-08T22:44:28.029Z,99439.72
2023-01-08T22:47:35.341Z,99439.72
2023-01-08T22:50:39.743Z,99423.41
2023-01-08T22:53:44.226Z,99434.69
2023-01-08T22:56:48.108Z,99436.53
2023-01-08T22:59:52.847Z,99423.50
2023-01-08T23:02:57.332Z,99420.88
2023-01-08T23:06:03.794Z,99433.00
2023-01-08T23:09:08.304Z,99422.59
2023-01-08T23:12:13.166Z,99411.06
2023-01-08T23:15:18.299Z,99422.41
2023-01-08T23:18:23.157Z,99415.44
2023-01-08T23:21:28.539Z,99417.22
2023-01-08T23:24:33.057Z,99419.06
2023-01-08T23:27:37.189Z,99418.19
2023-01-08T23:30:41.848Z,99410.38
2023-01-08T23:33:46.959Z,99407.09
2023-01-08T23:36:52.149Z,99396.69
2023-01-08T23:39:56.488Z,99402.50
2023-01-08T23:43:01.047Z,99385.19
2023-01-08T23:46:06.986Z,99376.75
2023-01-08T23:49:11.771Z,99357.59
2023-01-08T23:52:16.141Z,99360.22
2023-01-08T23:55:20.518Z,99351.81
2023-01-08T23:58:25.422Z,99351.88
